sensor_id;sensor_type;location;lat;lon;timestamp;P1;durP1;ratioP1;P2;durP2;ratioP2
52618;SDS011;38513;53.234;6.568;2022-12-07T00:01:20;13.73;;;2.13;;
52618;SDS011;38513;53.234;6.568;2022-12-07T00:03:47;13.55;;;2.38;;
52618;SDS011;38513;53.234;6.568;2022-12-07T00:06:14;12.82;;;2.10;;
52618;SDS011;38513;53.234;6.568;2022-12-07T00:08:40;14.52;;;2.35;;
52618;SDS011;38513;53.234;6.568;2022-12-07T00:11:07;13.30;;;2.20;;
52618;SDS011;38513;53.234;6.568;2022-12-07T00:13:34;12.25;;;1.92;;
52618;SDS011;38513;53.234;6.568;2022-12-07T00:16:04;12.40;;;2.23;;
52618;SDS011;38513;53.234;6.568;2022-12-07T00:18:31;12.70;;;2.00;;
52618;SDS011;38513;53.234;6.568;2022-12-07T00:21:00;13.97;;;2.20;;
52618;SDS011;38513;53.234;6.568;2022-12-07T00:23:27;11.18;;;2.30;;
52618;SDS011;38513;53.234;6.568;2022-12-07T00:25:53;12.13;;;1.80;;
52618;SDS011;38513;53.234;6.568;2022-12-07T00:28:19;9.57;;;2.05;;
52618;SDS011;38513;53.234;6.568;2022-12-07T00:30:45;15.60;;;2.10;;
52618;SDS011;38513;53.234;6.568;2022-12-07T00:33:11;13.63;;;2.00;;
52618;SDS011;38513;53.234;6.568;2022-12-07T00:35:37;12.05;;;2.30;;
52618;SDS011;38513;53.234;6.568;2022-12-07T00:38:04;12.23;;;2.03;;
52618;SDS011;38513;53.234;6.568;2022-12-07T00:40:30;14.98;;;2.30;;
52618;SDS011;38513;53.234;6.568;2022-12-07T00:42:56;11.25;;;2.05;;
52618;SDS011;38513;53.234;6.568;2022-12-07T00:45:22;12.50;;;2.08;;
52618;SDS011;38513;53.234;6.568;2022-12-07T00:47:48;13.48;;;2.05;;
52618;SDS011;38513;53.234;6.568;2022-12-07T00:50:14;12.80;;;1.98;;
52618;SDS011;38513;53.234;6.568;2022-12-07T00:52:40;10.70;;;1.67;;
52618;SDS011;38513;53.234;6.568;2022-12-07T00:55:06;8.98;;;1.55;;
52618;SDS011;38513;53.234;6.568;2022-12-07T00:57:35;11.33;;;1.50;;
52618;SDS011;38513;53.234;6.568;2022-12-07T01:00:02;9.30;;;1.50;;
52618;SDS011;38513;53.234;6.568;2022-12-07T01:02:28;9.23;;;1.70;;
52618;SDS011;38513;53.234;6.568;2022-12-07T01:04:55;11.23;;;1.35;;
52618;SDS011;38513;53.234;6.568;2022-12-07T01:07:21;8.57;;;1.30;;
52618;SDS011;38513;53.234;6.568;2022-12-07T01:09:47;11.75;;;1.60;;
52618;SDS011;38513;53.234;6.568;2022-12-07T01:12:13;9.63;;;1.80;;
52618;SDS011;38513;53.234;6.568;2022-12-07T01:14:41;8.82;;;1.55;;
52618;SDS011;38513;53.234;6.568;2022-12-07T01:17:07;9.23;;;1.50;;
52618;SDS011;38513;53.234;6.568;2022-12-07T01:19:33;9.40;;;1.70;;
52618;SDS011;38513;53.234;6.568;2022-12-07T01:21:59;11.60;;;1.88;;
52618;SDS011;38513;53.234;6.568;2022-12-07T01:24:25;9.68;;;1.60;;
52618;SDS011;38513;53.234;6.568;2022-12-07T01:26:51;10.13;;;1.60;;
52618;SDS011;38513;53.234;6.568;2022-12-07T01:29:18;13.43;;;1.63;;
52618;SDS011;38513;53.234;6.568;2022-12-07T01:31:44;10.55;;;2.00;;
52618;SDS011;38513;53.234;6.568;2022-12-07T01:34:12;10.98;;;1.80;;
52618;SDS011;38513;53.234;6.568;2022-12-07T01:36:39;9.50;;;1.95;;
52618;SDS011;38513;53.234;6.568;2022-12-07T01:39:06;11.45;;;1.70;;
52618;SDS011;38513;53.234;6.568;2022-12-07T01:41:33;9.07;;;1.50;;
52618;SDS011;38513;53.234;6.568;2022-12-07T01:44:14;10.32;;;2.03;;
52618;SDS011;38513;53.234;6.568;2022-12-07T01:46:41;11.70;;;1.88;;
52618;SDS011;38513;53.234;6.568;2022-12-07T01:49:08;11.40;;;1.67;;
52618;SDS011;38513;53.234;6.568;2022-12-07T01:51:35;12.63;;;1.60;;
52618;SDS011;38513;53.234;6.568;2022-12-07T01:54:03;10.32;;;2.10;;
52618;SDS011;38513;53.234;6.568;2022-12-07T01:56:29;13.00;;;1.77;;
52618;SDS011;38513;53.234;6.568;2022-12-07T01:58:56;10.90;;;1.80;;
52618;SDS011;38513;53.234;6.568;2022-12-07T02:01:23;14.48;;;1.95;;
52618;SDS011;38513;53.234;6.568;2022-12-07T02:03:49;12.10;;;2.10;;
52618;SDS011;38513;53.234;6.568;2022-12-07T02:06:16;8.45;;;1.60;;
52618;SDS011;38513;53.234;6.568;2022-12-07T02:08:43;13.90;;;1.80;;
52618;SDS011;38513;53.234;6.568;2022-12-07T02:11:09;11.18;;;1.77;;
52618;SDS011;38513;53.234;6.568;2022-12-07T02:13:36;14.10;;;1.83;;
52618;SDS011;38513;53.234;6.568;2022-12-07T02:29:14;10.05;;;1.95;;
52618;SDS011;38513;53.234;6.568;2022-12-07T02:31:44;14.70;;;2.25;;
52618;SDS011;38513;53.234;6.568;2022-12-07T02:34:16;13.65;;;2.13;;
52618;SDS011;38513;53.234;6.568;2022-12-07T02:36:46;14.93;;;2.10;;
52618;SDS011;38513;53.234;6.568;2022-12-07T02:39:17;14.50;;;2.55;;
52618;SDS011;38513;53.234;6.568;2022-12-07T02:41:51;12.18;;;2.10;;
52618;SDS011;38513;53.234;6.568;2022-12-07T02:44:20;14.35;;;2.15;;
52618;SDS011;38513;53.234;6.568;2022-12-07T02:46:54;16.05;;;2.47;;
52618;SDS011;38513;53.234;6.568;2022-12-07T02:49:22;13.98;;;2.05;;
52618;SDS011;38513;53.234;6.568;2022-12-07T02:51:49;13.75;;;2.65;;
52618;SDS011;38513;53.234;6.568;2022-12-07T02:54:17;12.30;;;2.20;;
52618;SDS011;38513;53.234;6.568;2022-12-07T02:56:46;9.68;;;1.98;;
52618;SDS011;38513;53.234;6.568;2022-12-07T03:10:01;11.30;;;1.90;;
52618;SDS011;38513;53.234;6.568;2022-12-07T03:12:28;10.45;;;1.50;;
52618;SDS011;38513;53.234;6.568;2022-12-07T03:15:08;12.00;;;2.10;;
52618;SDS011;38513;53.234;6.568;2022-12-07T03:17:37;10.98;;;1.55;;
52618;SDS011;38513;53.234;6.568;2022-12-07T03:20:04;11.48;;;1.60;;
52618;SDS011;38513;53.234;6.568;2022-12-07T03:22:33;11.23;;;1.98;;
52618;SDS011;38513;53.234;6.568;2022-12-07T03:25:03;14.52;;;2.10;;
52618;SDS011;38513;53.234;6.568;2022-12-07T03:29:58;10.70;;;1.67;;
52618;SDS011;38513;53.234;6.568;2022-12-07T03:32:33;8.93;;;1.80;;
52618;SDS011;38513;53.234;6.568;2022-12-07T03:35:05;10.35;;;1.88;;
52618;SDS011;38513;53.234;6.568;2022-12-07T03:37:40;9.63;;;1.50;;
52618;SDS011;38513;53.234;6.568;2022-12-07T03:40:08;13.00;;;1.77;;
52618;SDS011;38513;53.234;6.568;2022-12-07T03:42:37;11.88;;;1.73;;
52618;SDS011;38513;53.234;6.568;2022-12-07T03:45:03;9.63;;;1.52;;
52618;SDS011;38513;53.234;6.568;2022-12-07T03:47:54;13.05;;;1.50;;
52618;SDS011;38513;53.234;6.568;2022-12-07T03:50:31;8.03;;;1.13;;
52618;SDS011;38513;53.234;6.568;2022-12-07T03:53:09;11.18;;;1.60;;
52618;SDS011;38513;53.234;6.568;2022-12-07T03:55:39;10.88;;;1.52;;
52618;SDS011;38513;53.234;6.568;2022-12-07T03:58:07;9.27;;;1.47;;
52618;SDS011;38513;53.234;6.568;2022-12-07T04:00:35;8.82;;;1.30;;
52618;SDS011;38513;53.234;6.568;2022-12-07T04:03:01;9.00;;;1.27;;
52618;SDS011;38513;53.234;6.568;2022-12-07T04:05:27;9.23;;;1.40;;
52618;SDS011;38513;53.234;6.568;2022-12-07T04:07:53;10.60;;;1.40;;
52618;SDS011;38513;53.234;6.568;2022-12-07T04:10:19;10.85;;;1.30;;
52618;SDS011;38513;53.234;6.568;2022-12-07T04:12:46;13.57;;;1.70;;
52618;SDS011;38513;53.234;6.568;2022-12-07T04:15:12;10.27;;;1.48;;
52618;SDS011;38513;53.234;6.568;2022-12-07T04:17:38;11.40;;;1.48;;
52618;SDS011;38513;53.234;6.568;2022-12-07T04:20:04;8.77;;;1.30;;
52618;SDS011;38513;53.234;6.568;2022-12-07T04:22:31;8.00;;;1.40;;
52618;SDS011;38513;53.234;6.568;2022-12-07T04:24:57;11.80;;;1.77;;
52618;SDS011;38513;53.234;6.568;2022-12-07T04:27:23;11.38;;;1.67;;
52618;SDS011;38513;53.234;6.568;2022-12-07T04:29:49;13.48;;;1.70;;
52618;SDS011;38513;53.234;6.568;2022-12-07T04:32:15;12.47;;;1.70;;
52618;SDS011;38513;53.234;6.568;2022-12-07T04:34:41;14.90;;;2.03;;
52618;SDS011;38513;53.234;6.568;2022-12-07T04:37:07;14.27;;;1.80;;
52618;SDS011;38513;53.234;6.568;2022-12-07T04:39:33;12.30;;;1.90;;
52618;SDS011;38513;53.234;6.568;2022-12-07T04:41:59;11.20;;;1.40;;
52618;SDS011;38513;53.234;6.568;2022-12-07T04:44:26;13.57;;;1.75;;
52618;SDS011;38513;53.234;6.568;2022-12-07T04:46:53;9.65;;;1.90;;
52618;SDS011;38513;53.234;6.568;2022-12-07T04:49:19;9.68;;;1.30;;
52618;SDS011;38513;53.234;6.568;2022-12-07T04:51:46;15.82;;;2.17;;
52618;SDS011;38513;53.234;6.568;2022-12-07T04:54:13;10.82;;;1.45;;
52618;SDS011;38513;53.234;6.568;2022-12-07T04:56:39;10.50;;;1.75;;
52618;SDS011;38513;53.234;6.568;2022-12-07T04:59:06;11.93;;;1.88;;
52618;SDS011;38513;53.234;6.568;2022-12-07T05:01:32;10.02;;;1.45;;
52618;SDS011;38513;53.234;6.568;2022-12-07T05:03:58;12.25;;;1.90;;
52618;SDS011;38513;53.234;6.568;2022-12-07T05:06:25;11.18;;;1.70;;
52618;SDS011;38513;53.234;6.568;2022-12-07T05:08:51;12.40;;;1.73;;
52618;SDS011;38513;53.234;6.568;2022-12-07T05:11:17;10.80;;;1.70;;
52618;SDS011;38513;53.234;6.568;2022-12-07T05:14:17;11.00;;;2.03;;
52618;SDS011;38513;53.234;6.568;2022-12-07T05:16:44;11.52;;;1.70;;
52618;SDS011;38513;53.234;6.568;2022-12-07T05:19:10;11.20;;;1.77;;
52618;SDS011;38513;53.234;6.568;2022-12-07T05:21:37;9.93;;;1.70;;
52618;SDS011;38513;53.234;6.568;2022-12-07T05:24:04;11.25;;;1.60;;
52618;SDS011;38513;53.234;6.568;2022-12-07T05:26:30;12.50;;;1.77;;
52618;SDS011;38513;53.234;6.568;2022-12-07T05:28:57;11.27;;;1.65;;
52618;SDS011;38513;53.234;6.568;2022-12-07T05:31:24;12.30;;;1.83;;
52618;SDS011;38513;53.234;6.568;2022-12-07T05:33:50;12.25;;;1.90;;
52618;SDS011;38513;53.234;6.568;2022-12-07T05:36:16;10.45;;;1.70;;
52618;SDS011;38513;53.234;6.568;2022-12-07T05:38:43;10.77;;;1.73;;
52618;SDS011;38513;53.234;6.568;2022-12-07T05:41:09;13.75;;;1.73;;
52618;SDS011;38513;53.234;6.568;2022-12-07T05:43:57;13.17;;;1.90;;
52618;SDS011;38513;53.234;6.568;2022-12-07T05:46:23;12.98;;;2.20;;
52618;SDS011;38513;53.234;6.568;2022-12-07T05:48:49;12.52;;;1.92;;
52618;SDS011;38513;53.234;6.568;2022-12-07T05:51:15;13.57;;;2.30;;
52618;SDS011;38513;53.234;6.568;2022-12-07T05:53:41;12.73;;;1.90;;
52618;SDS011;38513;53.234;6.568;2022-12-07T05:56:07;12.77;;;2.20;;
52618;SDS011;38513;53.234;6.568;2022-12-07T05:58:34;16.10;;;2.38;;
52618;SDS011;38513;53.234;6.568;2022-12-07T06:01:18;13.57;;;2.22;;
52618;SDS011;38513;53.234;6.568;2022-12-07T06:03:44;16.07;;;2.40;;
52618;SDS011;38513;53.234;6.568;2022-12-07T06:06:10;14.88;;;2.67;;
52618;SDS011;38513;53.234;6.568;2022-12-07T06:08:37;16.60;;;2.40;;
52618;SDS011;38513;53.234;6.568;2022-12-07T06:11:03;12.00;;;2.20;;
52618;SDS011;38513;53.234;6.568;2022-12-07T06:13:47;14.25;;;1.98;;
52618;SDS011;38513;53.234;6.568;2022-12-07T06:16:13;11.60;;;2.33;;
52618;SDS011;38513;53.234;6.568;2022-12-07T06:18:40;13.95;;;2.13;;
52618;SDS011;38513;53.234;6.568;2022-12-07T06:21:06;14.40;;;2.25;;
52618;SDS011;38513;53.234;6.568;2022-12-07T06:23:32;12.07;;;2.08;;
52618;SDS011;38513;53.234;6.568;2022-12-07T06:25:58;11.43;;;2.20;;
52618;SDS011;38513;53.234;6.568;2022-12-07T06:28:24;11.98;;;1.90;;
52618;SDS011;38513;53.234;6.568;2022-12-07T06:30:57;9.20;;;1.80;;
52618;SDS011;38513;53.234;6.568;2022-12-07T06:33:24;10.48;;;1.75;;
52618;SDS011;38513;53.234;6.568;2022-12-07T06:35:50;9.70;;;1.83;;
52618;SDS011;38513;53.234;6.568;2022-12-07T06:38:16;12.20;;;1.63;;
52618;SDS011;38513;53.234;6.568;2022-12-07T06:40:42;10.35;;;1.80;;
52618;SDS011;38513;53.234;6.568;2022-12-07T06:43:09;12.57;;;2.10;;
52618;SDS011;38513;53.234;6.568;2022-12-07T06:45:35;12.40;;;2.10;;
52618;SDS011;38513;53.234;6.568;2022-12-07T06:48:01;12.80;;;2.15;;
52618;SDS011;38513;53.234;6.568;2022-12-07T06:50:27;11.02;;;2.28;;
52618;SDS011;38513;53.234;6.568;2022-12-07T06:52:53;12.05;;;1.85;;
52618;SDS011;38513;53.234;6.568;2022-12-07T06:55:19;11.57;;;2.13;;
52618;SDS011;38513;53.234;6.568;2022-12-07T06:57:45;12.73;;;2.17;;
52618;SDS011;38513;53.234;6.568;2022-12-07T07:00:14;12.23;;;1.83;;
52618;SDS011;38513;53.234;6.568;2022-12-07T07:02:41;11.45;;;1.90;;
52618;SDS011;38513;53.234;6.568;2022-12-07T07:05:07;10.53;;;2.00;;
52618;SDS011;38513;53.234;6.568;2022-12-07T07:07:33;14.63;;;1.80;;
52618;SDS011;38513;53.234;6.568;2022-12-07T07:09:59;13.10;;;1.90;;
52618;SDS011;38513;53.234;6.568;2022-12-07T07:12:25;11.63;;;1.92;;
52618;SDS011;38513;53.234;6.568;2022-12-07T07:14:51;9.88;;;1.75;;
52618;SDS011;38513;53.234;6.568;2022-12-07T07:17:17;10.68;;;1.98;;
52618;SDS011;38513;53.234;6.568;2022-12-07T07:19:44;15.65;;;2.40;;
52618;SDS011;38513;53.234;6.568;2022-12-07T07:22:10;15.48;;;2.10;;
52618;SDS011;38513;53.234;6.568;2022-12-07T07:24:36;10.30;;;1.92;;
52618;SDS011;38513;53.234;6.568;2022-12-07T07:27:02;8.13;;;1.35;;
52618;SDS011;38513;53.234;6.568;2022-12-07T07:29:28;10.30;;;1.60;;
52618;SDS011;38513;53.234;6.568;2022-12-07T07:31:54;6.93;;;1.60;;
52618;SDS011;38513;53.234;6.568;2022-12-07T07:34:20;6.32;;;1.25;;
52618;SDS011;38513;53.234;6.568;2022-12-07T07:36:46;10.07;;;1.40;;
52618;SDS011;38513;53.234;6.568;2022-12-07T07:39:12;9.35;;;1.33;;
52618;SDS011;38513;53.234;6.568;2022-12-07T07:41:39;8.90;;;1.33;;
52618;SDS011;38513;53.234;6.568;2022-12-07T07:44:05;10.80;;;1.85;;
52618;SDS011;38513;53.234;6.568;2022-12-07T07:46:31;9.52;;;1.60;;
52618;SDS011;38513;53.234;6.568;2022-12-07T07:48:58;8.63;;;1.52;;
52618;SDS011;38513;53.234;6.568;2022-12-07T07:51:24;11.18;;;1.92;;
52618;SDS011;38513;53.234;6.568;2022-12-07T07:53:50;17.00;;;2.88;;
52618;SDS011;38513;53.234;6.568;2022-12-07T07:56:16;20.00;;;3.30;;
52618;SDS011;38513;53.234;6.568;2022-12-07T07:58:42;18.95;;;3.80;;
52618;SDS011;38513;53.234;6.568;2022-12-07T08:01:08;20.00;;;4.03;;
52618;SDS011;38513;53.234;6.568;2022-12-07T08:03:35;20.13;;;3.45;;
52618;SDS011;38513;53.234;6.568;2022-12-07T08:06:02;12.85;;;2.22;;
52618;SDS011;38513;53.234;6.568;2022-12-07T08:08:28;12.85;;;2.53;;
52618;SDS011;38513;53.234;6.568;2022-12-07T08:10:54;11.55;;;2.30;;
52618;SDS011;38513;53.234;6.568;2022-12-07T08:13:20;11.48;;;2.20;;
52618;SDS011;38513;53.234;6.568;2022-12-07T08:15:46;13.65;;;2.40;;
52618;SDS011;38513;53.234;6.568;2022-12-07T08:18:13;15.73;;;2.67;;
52618;SDS011;38513;53.234;6.568;2022-12-07T08:20:40;16.58;;;2.80;;
52618;SDS011;38513;53.234;6.568;2022-12-07T08:23:07;16.90;;;2.80;;
52618;SDS011;38513;53.234;6.568;2022-12-07T08:25:33;14.25;;;2.63;;
52618;SDS011;38513;53.234;6.568;2022-12-07T08:27:59;14.40;;;2.63;;
52618;SDS011;38513;53.234;6.568;2022-12-07T08:30:26;17.27;;;3.23;;
52618;SDS011;38513;53.234;6.568;2022-12-07T08:32:52;16.00;;;2.90;;
52618;SDS011;38513;53.234;6.568;2022-12-07T08:35:18;15.97;;;3.30;;
52618;SDS011;38513;53.234;6.568;2022-12-07T08:37:44;17.45;;;2.80;;
52618;SDS011;38513;53.234;6.568;2022-12-07T08:40:11;13.73;;;2.20;;
52618;SDS011;38513;53.234;6.568;2022-12-07T08:42:50;14.32;;;2.58;;
52618;SDS011;38513;53.234;6.568;2022-12-07T08:45:16;13.68;;;2.38;;
52618;SDS011;38513;53.234;6.568;2022-12-07T08:47:44;15.38;;;2.47;;
52618;SDS011;38513;53.234;6.568;2022-12-07T08:50:12;14.73;;;2.67;;
52618;SDS011;38513;53.234;6.568;2022-12-07T08:52:38;12.43;;;2.47;;
52618;SDS011;38513;53.234;6.568;2022-12-07T08:55:06;15.30;;;2.50;;
52618;SDS011;38513;53.234;6.568;2022-12-07T08:57:33;14.60;;;2.72;;
52618;SDS011;38513;53.234;6.568;2022-12-07T09:00:00;15.05;;;2.40;;
52618;SDS011;38513;53.234;6.568;2022-12-07T09:02:26;15.02;;;2.55;;
52618;SDS011;38513;53.234;6.568;2022-12-07T09:04:52;13.57;;;2.40;;
52618;SDS011;38513;53.234;6.568;2022-12-07T09:07:18;13.68;;;2.35;;
52618;SDS011;38513;53.234;6.568;2022-12-07T09:09:44;15.45;;;2.40;;
52618;SDS011;38513;53.234;6.568;2022-12-07T09:12:10;15.38;;;2.17;;
52618;SDS011;38513;53.234;6.568;2022-12-07T09:14:37;12.43;;;2.15;;
52618;SDS011;38513;53.234;6.568;2022-12-07T09:17:10;11.65;;;2.33;;
52618;SDS011;38513;53.234;6.568;2022-12-07T09:19:36;10.18;;;2.10;;
52618;SDS011;38513;53.234;6.568;2022-12-07T09:22:03;11.13;;;1.80;;
52618;SDS011;38513;53.234;6.568;2022-12-07T09:24:30;13.30;;;1.90;;
52618;SDS011;38513;53.234;6.568;2022-12-07T09:26:56;7.55;;;1.48;;
52618;SDS011;38513;53.234;6.568;2022-12-07T09:29:23;8.57;;;1.63;;
52618;SDS011;38513;53.234;6.568;2022-12-07T09:31:49;8.77;;;1.63;;
52618;SDS011;38513;53.234;6.568;2022-12-07T09:34:15;9.60;;;1.45;;
52618;SDS011;38513;53.234;6.568;2022-12-07T09:36:41;9.43;;;1.50;;
52618;SDS011;38513;53.234;6.568;2022-12-07T09:39:07;8.85;;;1.63;;
52618;SDS011;38513;53.234;6.568;2022-12-07T09:41:34;8.27;;;1.17;;
52618;SDS011;38513;53.234;6.568;2022-12-07T09:44:04;8.73;;;1.50;;
52618;SDS011;38513;53.234;6.568;2022-12-07T09:46:34;8.07;;;1.40;;
52618;SDS011;38513;53.234;6.568;2022-12-07T09:49:01;7.73;;;1.20;;
52618;SDS011;38513;53.234;6.568;2022-12-07T09:51:27;8.25;;;1.42;;
52618;SDS011;38513;53.234;6.568;2022-12-07T09:53:53;9.13;;;1.27;;
52618;SDS011;38513;53.234;6.568;2022-12-07T09:56:23;11.38;;;1.95;;
52618;SDS011;38513;53.234;6.568;2022-12-07T09:58:56;10.93;;;1.63;;
52618;SDS011;38513;53.234;6.568;2022-12-07T10:01:27;9.48;;;1.50;;
52618;SDS011;38513;53.234;6.568;2022-12-07T10:03:55;10.05;;;1.80;;
52618;SDS011;38513;53.234;6.568;2022-12-07T10:06:24;9.85;;;1.75;;
52618;SDS011;38513;53.234;6.568;2022-12-07T10:08:53;9.10;;;1.77;;
52618;SDS011;38513;53.234;6.568;2022-12-07T10:11:19;11.07;;;2.30;;
52618;SDS011;38513;53.234;6.568;2022-12-07T10:13:52;10.15;;;1.90;;
52618;SDS011;38513;53.234;6.568;2022-12-07T10:18:53;11.55;;;1.90;;
52618;SDS011;38513;53.234;6.568;2022-12-07T10:26:32;13.77;;;2.00;;
52618;SDS011;38513;53.234;6.568;2022-12-07T10:29:00;9.85;;;1.92;;
52618;SDS011;38513;53.234;6.568;2022-12-07T10:31:27;13.23;;;2.10;;
52618;SDS011;38513;53.234;6.568;2022-12-07T10:33:55;10.88;;;2.40;;
52618;SDS011;38513;53.234;6.568;2022-12-07T10:36:36;14.20;;;2.30;;
52618;SDS011;38513;53.234;6.568;2022-12-07T10:42:01;15.88;;;3.20;;
52618;SDS011;38513;53.234;6.568;2022-12-07T10:44:32;8.98;;;2.03;;
52618;SDS011;38513;53.234;6.568;2022-12-07T10:47:06;10.38;;;2.20;;
52618;SDS011;38513;53.234;6.568;2022-12-07T10:49:41;13.82;;;2.30;;
52618;SDS011;38513;53.234;6.568;2022-12-07T10:52:16;11.70;;;2.05;;
52618;SDS011;38513;53.234;6.568;2022-12-07T10:57:28;11.70;;;2.20;;
52618;SDS011;38513;53.234;6.568;2022-12-07T11:00:08;10.52;;;2.10;;
52618;SDS011;38513;53.234;6.568;2022-12-07T11:05:12;9.30;;;1.60;;
52618;SDS011;38513;53.234;6.568;2022-12-07T11:07:47;10.32;;;1.60;;
52618;SDS011;38513;53.234;6.568;2022-12-07T11:10:19;8.90;;;1.60;;
52618;SDS011;38513;53.234;6.568;2022-12-07T11:12:57;10.95;;;1.83;;
52618;SDS011;38513;53.234;6.568;2022-12-07T11:15:50;9.30;;;1.63;;
52618;SDS011;38513;53.234;6.568;2022-12-07T11:18:26;12.27;;;2.05;;
52618;SDS011;38513;53.234;6.568;2022-12-07T11:21:12;11.67;;;2.17;;
52618;SDS011;38513;53.234;6.568;2022-12-07T11:34:19;10.00;;;1.85;;
52618;SDS011;38513;53.234;6.568;2022-12-07T11:36:54;10.23;;;1.80;;
52618;SDS011;38513;53.234;6.568;2022-12-07T11:39:39;13.82;;;2.25;;
52618;SDS011;38513;53.234;6.568;2022-12-07T11:42:19;10.00;;;2.08;;
52618;SDS011;38513;53.234;6.568;2022-12-07T11:44:53;15.00;;;2.25;;
52618;SDS011;38513;53.234;6.568;2022-12-07T11:47:31;13.98;;;2.13;;
52618;SDS011;38513;53.234;6.568;2022-12-07T11:52:28;11.95;;;2.35;;
52618;SDS011;38513;53.234;6.568;2022-12-07T11:54:56;11.40;;;1.88;;
52618;SDS011;38513;53.234;6.568;2022-12-07T11:57:28;10.63;;;1.73;;
52618;SDS011;38513;53.234;6.568;2022-12-07T11:59:58;9.48;;;1.50;;
52618;SDS011;38513;53.234;6.568;2022-12-07T12:02:48;9.23;;;1.70;;
52618;SDS011;38513;53.234;6.568;2022-12-07T12:05:16;9.90;;;1.92;;
52618;SDS011;38513;53.234;6.568;2022-12-07T12:07:43;7.97;;;1.70;;
52618;SDS011;38513;53.234;6.568;2022-12-07T12:13:02;8.70;;;1.75;;
52618;SDS011;38513;53.234;6.568;2022-12-07T12:15:38;10.27;;;1.55;;
52618;SDS011;38513;53.234;6.568;2022-12-07T12:18:18;8.90;;;1.85;;
52618;SDS011;38513;53.234;6.568;2022-12-07T12:23:41;10.80;;;1.70;;
52618;SDS011;38513;53.234;6.568;2022-12-07T12:26:13;12.30;;;2.67;;
52618;SDS011;38513;53.234;6.568;2022-12-07T12:28:44;11.25;;;2.38;;
52618;SDS011;38513;53.234;6.568;2022-12-07T12:33:45;10.93;;;1.95;;
52618;SDS011;38513;53.234;6.568;2022-12-07T12:36:19;13.77;;;2.33;;
52618;SDS011;38513;53.234;6.568;2022-12-07T13:10:08;8.63;;;1.38;;
52618;SDS011;38513;53.234;6.568;2022-12-07T13:15:38;11.23;;;2.00;;
52618;SDS011;38513;53.234;6.568;2022-12-07T13:23:20;10.97;;;1.90;;
52618;SDS011;38513;53.234;6.568;2022-12-07T13:25:49;7.45;;;1.50;;
52618;SDS011;38513;53.234;6.568;2022-12-07T13:28:17;8.77;;;2.03;;
52618;SDS011;38513;53.234;6.568;2022-12-07T13:30:54;8.15;;;1.50;;
52618;SDS011;38513;53.234;6.568;2022-12-07T13:33:27;7.95;;;1.45;;
52618;SDS011;38513;53.234;6.568;2022-12-07T13:35:54;11.30;;;1.90;;
52618;SDS011;38513;53.234;6.568;2022-12-07T13:38:36;10.40;;;1.60;;
52618;SDS011;38513;53.234;6.568;2022-12-07T13:43:29;6.40;;;1.08;;
52618;SDS011;38513;53.234;6.568;2022-12-07T13:45:56;6.15;;;1.00;;
52618;SDS011;38513;53.234;6.568;2022-12-07T13:48:37;6.30;;;1.00;;
52618;SDS011;38513;53.234;6.568;2022-12-07T13:51:22;4.72;;;0.98;;
52618;SDS011;38513;53.234;6.568;2022-12-07T13:53:50;7.30;;;1.10;;
52618;SDS011;38513;53.234;6.568;2022-12-07T13:56:20;6.78;;;1.10;;
52618;SDS011;38513;53.234;6.568;2022-12-07T13:58:50;6.50;;;1.08;;
52618;SDS011;38513;53.234;6.568;2022-12-07T14:01:25;5.93;;;0.90;;
52618;SDS011;38513;53.234;6.568;2022-12-07T14:03:52;7.47;;;1.20;;
52618;SDS011;38513;53.234;6.568;2022-12-07T14:06:23;5.57;;;0.90;;
52618;SDS011;38513;53.234;6.568;2022-12-07T14:09:14;4.07;;;0.80;;
52618;SDS011;38513;53.234;6.568;2022-12-07T14:11:42;6.70;;;1.05;;
52618;SDS011;38513;53.234;6.568;2022-12-07T14:14:17;8.02;;;1.30;;
52618;SDS011;38513;53.234;6.568;2022-12-07T14:16:45;7.05;;;1.40;;
52618;SDS011;38513;53.234;6.568;2022-12-07T14:22:05;8.23;;;1.48;;
52618;SDS011;38513;53.234;6.568;2022-12-07T14:24:41;9.88;;;1.50;;
52618;SDS011;38513;53.234;6.568;2022-12-07T14:27:16;9.10;;;1.55;;
52618;SDS011;38513;53.234;6.568;2022-12-07T14:29:43;7.60;;;1.63;;
52618;SDS011;38513;53.234;6.568;2022-12-07T14:32:24;8.73;;;1.80;;
52618;SDS011;38513;53.234;6.568;2022-12-07T14:37:23;9.57;;;1.63;;
52618;SDS011;38513;53.234;6.568;2022-12-07T14:39:50;7.90;;;1.83;;
52618;SDS011;38513;53.234;6.568;2022-12-07T14:42:16;7.93;;;1.67;;
52618;SDS011;38513;53.234;6.568;2022-12-07T14:44:42;9.27;;;1.60;;
52618;SDS011;38513;53.234;6.568;2022-12-07T14:47:09;7.15;;;1.40;;
52618;SDS011;38513;53.234;6.568;2022-12-07T14:49:35;7.85;;;1.63;;
52618;SDS011;38513;53.234;6.568;2022-12-07T14:52:02;9.40;;;1.40;;
52618;SDS011;38513;53.234;6.568;2022-12-07T14:54:29;7.53;;;1.38;;
52618;SDS011;38513;53.234;6.568;2022-12-07T14:56:56;6.78;;;1.50;;
52618;SDS011;38513;53.234;6.568;2022-12-07T14:59:22;7.43;;;1.38;;
52618;SDS011;38513;53.234;6.568;2022-12-07T15:01:49;7.00;;;1.30;;
52618;SDS011;38513;53.234;6.568;2022-12-07T15:04:18;7.25;;;1.30;;
52618;SDS011;38513;53.234;6.568;2022-12-07T15:07:00;8.77;;;1.17;;
52618;SDS011;38513;53.234;6.568;2022-12-07T15:09:54;6.70;;;1.27;;
52618;SDS011;38513;53.234;6.568;2022-12-07T15:12:23;7.57;;;1.10;;
52618;SDS011;38513;53.234;6.568;2022-12-07T15:14:52;7.07;;;1.25;;
52618;SDS011;38513;53.234;6.568;2022-12-07T15:17:21;6.10;;;1.20;;
52618;SDS011;38513;53.234;6.568;2022-12-07T15:19:47;6.65;;;1.67;;
52618;SDS011;38513;53.234;6.568;2022-12-07T15:22:13;7.82;;;1.27;;
52618;SDS011;38513;53.234;6.568;2022-12-07T15:24:39;8.33;;;1.50;;
52618;SDS011;38513;53.234;6.568;2022-12-07T15:27:10;7.63;;;1.65;;
52618;SDS011;38513;53.234;6.568;2022-12-07T15:29:36;9.05;;;1.70;;
52618;SDS011;38513;53.234;6.568;2022-12-07T15:32:02;8.73;;;1.77;;
52618;SDS011;38513;53.234;6.568;2022-12-07T15:34:29;9.57;;;2.05;;
52618;SDS011;38513;53.234;6.568;2022-12-07T15:36:57;9.20;;;1.60;;
52618;SDS011;38513;53.234;6.568;2022-12-07T15:39:24;7.78;;;1.55;;
52618;SDS011;38513;53.234;6.568;2022-12-07T15:41:59;8.32;;;1.65;;
52618;SDS011;38513;53.234;6.568;2022-12-07T15:44:28;8.65;;;1.70;;
52618;SDS011;38513;53.234;6.568;2022-12-07T15:47:17;10.27;;;1.92;;
52618;SDS011;38513;53.234;6.568;2022-12-07T15:49:58;8.83;;;1.63;;
52618;SDS011;38513;53.234;6.568;2022-12-07T15:52:25;9.60;;;2.15;;
52618;SDS011;38513;53.234;6.568;2022-12-07T15:54:51;8.23;;;1.60;;
52618;SDS011;38513;53.234;6.568;2022-12-07T15:57:18;7.80;;;1.60;;
52618;SDS011;38513;53.234;6.568;2022-12-07T15:59:45;7.93;;;1.70;;
52618;SDS011;38513;53.234;6.568;2022-12-07T16:02:15;7.22;;;1.60;;
52618;SDS011;38513;53.234;6.568;2022-12-07T16:04:44;9.32;;;1.80;;
52618;SDS011;38513;53.234;6.568;2022-12-07T16:07:11;9.63;;;2.08;;
52618;SDS011;38513;53.234;6.568;2022-12-07T16:09:43;8.53;;;1.50;;
52618;SDS011;38513;53.234;6.568;2022-12-07T16:12:13;7.78;;;1.65;;
52618;SDS011;38513;53.234;6.568;2022-12-07T16:14:43;9.85;;;1.75;;
52618;SDS011;38513;53.234;6.568;2022-12-07T16:17:09;8.32;;;1.40;;
52618;SDS011;38513;53.234;6.568;2022-12-07T16:19:36;11.32;;;3.53;;
52618;SDS011;38513;53.234;6.568;2022-12-07T16:22:05;8.57;;;1.70;;
52618;SDS011;38513;53.234;6.568;2022-12-07T16:24:31;10.07;;;1.90;;
52618;SDS011;38513;53.234;6.568;2022-12-07T16:26:57;8.85;;;2.00;;
52618;SDS011;38513;53.234;6.568;2022-12-07T16:29:23;9.57;;;1.83;;
52618;SDS011;38513;53.234;6.568;2022-12-07T16:31:50;10.32;;;1.75;;
52618;SDS011;38513;53.234;6.568;2022-12-07T16:34:16;8.25;;;1.90;;
52618;SDS011;38513;53.234;6.568;2022-12-07T16:36:43;7.13;;;1.50;;
52618;SDS011;38513;53.234;6.568;2022-12-07T16:39:09;7.55;;;1.70;;